MDT,Max TemperatureF,Mean TemperatureF,Min TemperatureF,Max Dew PointF,MeanDew PointF,Min DewpointF,Max Humidity, Mean Humidity, Min Humidity, Max Sea Level PressureIn, Mean Sea Level PressureIn, Min Sea Level PressureIn, Max VisibilityMiles, Mean VisibilityMiles, Min VisibilityMiles, Max Wind SpeedMPH, Mean Wind SpeedMPH, Max Gust SpeedMPH,PrecipitationIn, CloudCover, Events, WindDirDegrees
2013-6-1,75,58,40,34,27,10,43,30,17,30.16,30.03,29.87,10,10,10,18,7,25,0.00,0,,85
2013-6-2,89,67,44,35,30,25,53,32,10,30.09,29.87,29.65,10,10,10,21,6,26,0.00,0,,137
2013-6-3,98,74,49,32,26,18,39,23,6,29.73,29.61,29.52,10,10,10,30,12,37,0.00,0,,267
2013-6-4,85,73,61,53,38,19,67,42,16,29.99,29.78,29.64,10,10,7,26,11,33,0.03,1,Rain,76
2013-6-5,62,57,51,52,48,44,96,78,60,30.22,30.11,29.93,10,8,2,36,11,40,0.07,8,Rain,71
2013-6-6,82,63,44,49,44,38,92,58,23,30.19,29.99,29.87,10,10,7,16,7,22,0.00,3,,135
2013-6-7,82,68,53,45,40,34,59,39,18,29.98,29.84,29.71,10,10,6,29,6,38,0.00,1,Thunderstorm,269
2013-6-8,89,70,51,59,44,30,87,50,13,30.00,29.73,29.59,10,9,4,32,11,40,0.14,2,Rain-Thunderstorm,348
2013-6-9,91,70,49,47,39,29,86,49,11,29.96,29.86,29.75,10,10,10,17,6,21,0.00,0,,123
2013-6-10,103,79,55,40,28,17,51,28,5,29.82,29.69,29.60,10,10,10,22,7,26,0.00,0,,270
2013-6-11,104,82,60,37,19,-3,34,18,2,29.89,29.64,29.55,10,10,8,32,13,39,0.00,0,,254
2013-6-12,97,76,55,41,26,15,25,17,8,29.95,29.85,29.74,10,10,9,28,13,36,0.00,0,,152
2013-6-13,93,79,64,53,43,28,56,34,11,30.00,29.82,29.72,10,10,6,31,9,62,0.00,0,,94
2013-6-14,94,79,64,45,39,28,42,26,10,29.98,29.78,29.64,10,9,2,32,10,41,0.00,1,,124
2013-6-15,93,75,56,46,42,33,57,36,14,29.90,29.81,29.73,10,10,6,31,10,38,0.00,0,,30
2013-6-16,90,74,57,52,44,34,65,40,15,30.11,29.95,29.81,10,9,2,52,9,60,T,1,Rain-Thunderstorm,35
2013-6-17,90,73,55,52,44,37,66,42,17,30.09,29.97,29.88,10,10,9,35,10,40,0.00,1,,98
2013-6-18,89,74,59,53,48,35,72,45,18,30.05,29.90,29.75,10,10,8,29,10,38,0.03,1,Rain,141
2013-6-19,97,78,58,56,42,3,84,44,3,30.03,29.72,29.48,10,10,7,35,11,52,0.00,3,,213
2013-6-20,100,78,56,54,18,-10,46,24,2,29.69,29.61,29.56,10,10,7,24,8,32,0.00,1,,253
2013-6-21,100,79,58,37,16,7,37,20,3,29.84,29.64,29.54,10,8,2,21,8,25,0.00,2,,266
2013-6-22,97,79,60,42,27,8,40,22,4,29.84,29.66,29.51,10,8,2,23,9,33,0.00,3,,283
2013-6-23,90,76,62,48,44,39,52,35,18,29.84,29.71,29.62,10,10,10,29,11,33,0.00,0,,107
2013-6-24,97,78,58,51,30,6,55,30,4,29.80,29.67,29.53,10,10,10,25,9,29,0.00,1,,254
2013-6-25,97,79,61,31,20,11,19,13,6,29.77,29.67,29.59,10,10,7,23,10,31,0.00,0,,239
2013-6-26,99,81,63,48,37,31,36,23,10,29.90,29.83,29.76,10,10,10,17,9,24,0.00,0,,102
2013-6-27,104,86,67,51,41,32,47,28,9,30.05,29.91,29.82,10,10,10,25,13,36,T,0,,56
2013-6-28,99,83,67,61,46,30,59,35,10,30.33,29.99,29.86,10,10,10,49,11,58,T,1,Rain-Thunderstorm,44
2013-6-29,87,76,65,55,49,38,63,41,19,30.22,29.99,29.92,10,10,10,35,8,43,T,0,,336
2013-6-30,84,72,60,52,50,46,72,51,30,30.12,30.04,29.99,10,10,10,24,8,31,T,1,Rain,96